sensor_id;sensor_type;location;lat;lon;timestamp;temperature;humidity
10030;DHT22;5055;52.054;8.524;2023-02-28T00:01:48;-2.80;97.00
10030;DHT22;5055;52.054;8.524;2023-02-28T00:04:18;-2.80;97.00
10030;DHT22;5055;52.054;8.524;2023-02-28T00:06:46;-2.80;97.00
10030;DHT22;5055;52.054;8.524;2023-02-28T00:09:15;-2.90;97.00
10030;DHT22;5055;52.054;8.524;2023-02-28T00:11:43;-2.90;97.00
10030;DHT22;5055;52.054;8.524;2023-02-28T00:14:12;-2.90;97.00
10030;DHT22;5055;52.054;8.524;2023-02-28T00:16:40;-3.00;97.00
10030;DHT22;5055;52.054;8.524;2023-02-28T00:19:10;-3.00;97.00
10030;DHT22;5055;52.054;8.524;2023-02-28T00:21:41;-3.00;97.00
10030;DHT22;5055;52.054;8.524;2023-02-28T00:24:11;-3.00;97.00
10030;DHT22;5055;52.054;8.524;2023-02-28T00:26:39;-3.00;97.00
10030;DHT22;5055;52.054;8.524;2023-02-28T00:29:08;-3.00;97.00
10030;DHT22;5055;52.054;8.524;2023-02-28T00:31:36;-3.00;97.00
10030;DHT22;5055;52.054;8.524;2023-02-28T00:34:05;-3.00;97.00
10030;DHT22;5055;52.054;8.524;2023-02-28T00:36:33;-3.00;97.00
10030;DHT22;5055;52.054;8.524;2023-02-28T00:39:03;-3.00;97.00
10030;DHT22;5055;52.054;8.524;2023-02-28T00:41:32;-3.00;97.00
10030;DHT22;5055;52.054;8.524;2023-02-28T00:44:00;-3.00;97.00
10030;DHT22;5055;52.054;8.524;2023-02-28T00:46:29;-3.00;97.00
10030;DHT22;5055;52.054;8.524;2023-02-28T00:48:58;-3.00;97.00
10030;DHT22;5055;52.054;8.524;2023-02-28T00:51:27;-3.10;97.00
10030;DHT22;5055;52.054;8.524;2023-02-28T00:53:56;-3.10;97.00
10030;DHT22;5055;52.054;8.524;2023-02-28T00:56:26;-3.10;97.00
10030;DHT22;5055;52.054;8.524;2023-02-28T00:58:54;-3.00;97.00
10030;DHT22;5055;52.054;8.524;2023-02-28T01:01:23;-3.00;97.00
10030;DHT22;5055;52.054;8.524;2023-02-28T01:03:51;-3.00;97.00
10030;DHT22;5055;52.054;8.524;2023-02-28T01:06:20;-3.00;97.00
10030;DHT22;5055;52.054;8.524;2023-02-28T01:08:49;-3.10;97.00
10030;DHT22;5055;52.054;8.524;2023-02-28T01:11:17;-3.00;97.00
10030;DHT22;5055;52.054;8.524;2023-02-28T01:13:48;-3.10;97.00
10030;DHT22;5055;52.054;8.524;2023-02-28T01:16:16;-3.10;97.00
10030;DHT22;5055;52.054;8.524;2023-02-28T01:18:45;-3.10;97.00
10030;DHT22;5055;52.054;8.524;2023-02-28T01:21:15;-3.20;97.00
10030;DHT22;5055;52.054;8.524;2023-02-28T01:23:44;-3.30;97.00
10030;DHT22;5055;52.054;8.524;2023-02-28T01:26:17;-3.30;97.00
10030;DHT22;5055;52.054;8.524;2023-02-28T01:28:48;-3.40;97.00
10030;DHT22;5055;52.054;8.524;2023-02-28T01:31:18;-3.40;97.00
10030;DHT22;5055;52.054;8.524;2023-02-28T01:33:47;-3.40;97.00
10030;DHT22;5055;52.054;8.524;2023-02-28T01:36:18;-3.50;97.00
10030;DHT22;5055;52.054;8.524;2023-02-28T01:38:47;-3.50;97.00
10030;DHT22;5055;52.054;8.524;2023-02-28T01:41:17;-3.50;97.00
10030;DHT22;5055;52.054;8.524;2023-02-28T01:43:59;-3.60;97.00
10030;DHT22;5055;52.054;8.524;2023-02-28T01:46:30;-3.60;97.00
10030;DHT22;5055;52.054;8.524;2023-02-28T01:49:03;-3.70;97.00
10030;DHT22;5055;52.054;8.524;2023-02-28T01:51:37;-3.70;97.00
10030;DHT22;5055;52.054;8.524;2023-02-28T01:54:10;-3.70;97.00
10030;DHT22;5055;52.054;8.524;2023-02-28T01:56:45;-3.70;97.00
10030;DHT22;5055;52.054;8.524;2023-02-28T01:59:22;-3.80;97.00
10030;DHT22;5055;52.054;8.524;2023-02-28T02:01:52;-3.80;97.00
10030;DHT22;5055;52.054;8.524;2023-02-28T02:04:24;-3.80;97.00
10030;DHT22;5055;52.054;8.524;2023-02-28T02:06:53;-3.80;97.00
10030;DHT22;5055;52.054;8.524;2023-02-28T02:09:22;-3.90;97.00
10030;DHT22;5055;52.054;8.524;2023-02-28T02:11:50;-3.90;97.00
10030;DHT22;5055;52.054;8.524;2023-02-28T02:14:43;-3.90;97.00
10030;DHT22;5055;52.054;8.524;2023-02-28T02:17:20;-4.00;97.00
10030;DHT22;5055;52.054;8.524;2023-02-28T02:25:53;-4.00;97.00
10030;DHT22;5055;52.054;8.524;2023-02-28T02:32:08;-3.90;97.00
10030;DHT22;5055;52.054;8.524;2023-02-28T02:34:48;-3.90;97.00
10030;DHT22;5055;52.054;8.524;2023-02-28T02:37:26;-3.90;97.00
10030;DHT22;5055;52.054;8.524;2023-02-28T02:40:03;-3.90;97.00
10030;DHT22;5055;52.054;8.524;2023-02-28T02:42:36;-3.90;97.00
10030;DHT22;5055;52.054;8.524;2023-02-28T02:45:10;-3.90;97.00
10030;DHT22;5055;52.054;8.524;2023-02-28T02:47:41;-3.90;97.00
10030;DHT22;5055;52.054;8.524;2023-02-28T02:50:16;-3.90;97.00
10030;DHT22;5055;52.054;8.524;2023-02-28T02:52:51;-3.90;97.00
10030;DHT22;5055;52.054;8.524;2023-02-28T02:55:20;-4.00;97.00
10030;DHT22;5055;52.054;8.524;2023-02-28T02:57:53;-4.00;97.00
10030;DHT22;5055;52.054;8.524;2023-02-28T03:00:26;-4.10;97.00
10030;DHT22;5055;52.054;8.524;2023-02-28T03:02:59;-4.10;97.00
10030;DHT22;5055;52.054;8.524;2023-02-28T03:05:35;-4.10;97.00
10030;DHT22;5055;52.054;8.524;2023-02-28T03:08:07;-4.20;97.00
10030;DHT22;5055;52.054;8.524;2023-02-28T03:10:38;-4.20;97.00
10030;DHT22;5055;52.054;8.524;2023-02-28T03:13:15;-4.30;97.00
10030;DHT22;5055;52.054;8.524;2023-02-28T03:15:58;-4.30;97.00
10030;DHT22;5055;52.054;8.524;2023-02-28T03:18:38;-4.30;97.00
10030;DHT22;5055;52.054;8.524;2023-02-28T03:21:17;-4.30;97.00
10030;DHT22;5055;52.054;8.524;2023-02-28T03:23:56;-4.30;97.00
10030;DHT22;5055;52.054;8.524;2023-02-28T03:26:27;-4.30;97.00
10030;DHT22;5055;52.054;8.524;2023-02-28T03:29:03;-4.30;97.00
10030;DHT22;5055;52.054;8.524;2023-02-28T03:31:36;-4.30;97.00
10030;DHT22;5055;52.054;8.524;2023-02-28T03:34:09;-4.30;97.00
10030;DHT22;5055;52.054;8.524;2023-02-28T03:36:44;-4.40;97.00
10030;DHT22;5055;52.054;8.524;2023-02-28T03:39:17;-4.40;97.00
10030;DHT22;5055;52.054;8.524;2023-02-28T03:41:51;-4.40;97.00
10030;DHT22;5055;52.054;8.524;2023-02-28T03:44:23;-4.40;97.00
10030;DHT22;5055;52.054;8.524;2023-02-28T03:46:59;-4.40;97.00
10030;DHT22;5055;52.054;8.524;2023-02-28T03:49:32;-4.50;97.00
10030;DHT22;5055;52.054;8.524;2023-02-28T03:52:04;-4.50;97.00
10030;DHT22;5055;52.054;8.524;2023-02-28T03:54:37;-4.60;97.00
10030;DHT22;5055;52.054;8.524;2023-02-28T03:57:12;-4.60;97.00
10030;DHT22;5055;52.054;8.524;2023-02-28T03:59:46;-4.70;97.00
10030;DHT22;5055;52.054;8.524;2023-02-28T04:02:15;-4.70;97.00
10030;DHT22;5055;52.054;8.524;2023-02-28T04:04:45;-4.80;97.00
10030;DHT22;5055;52.054;8.524;2023-02-28T04:07:17;-4.80;97.00
10030;DHT22;5055;52.054;8.524;2023-02-28T04:09:46;-4.90;97.00
10030;DHT22;5055;52.054;8.524;2023-02-28T04:12:14;-4.90;97.00
10030;DHT22;5055;52.054;8.524;2023-02-28T04:14:42;-4.90;97.00
10030;DHT22;5055;52.054;8.524;2023-02-28T04:17:11;-4.90;97.00
10030;DHT22;5055;52.054;8.524;2023-02-28T04:19:39;-5.00;97.00
10030;DHT22;5055;52.054;8.524;2023-02-28T04:22:08;-5.00;97.00
10030;DHT22;5055;52.054;8.524;2023-02-28T04:24:38;-5.00;97.00
10030;DHT22;5055;52.054;8.524;2023-02-28T04:27:08;-5.00;97.00
10030;DHT22;5055;52.054;8.524;2023-02-28T04:29:37;-5.00;97.00
10030;DHT22;5055;52.054;8.524;2023-02-28T04:32:05;-5.00;97.00
10030;DHT22;5055;52.054;8.524;2023-02-28T04:34:34;-5.00;97.00
10030;DHT22;5055;52.054;8.524;2023-02-28T04:37:02;-5.10;97.00
10030;DHT22;5055;52.054;8.524;2023-02-28T04:39:41;-5.10;97.00
10030;DHT22;5055;52.054;8.524;2023-02-28T04:42:10;-5.10;97.00
10030;DHT22;5055;52.054;8.524;2023-02-28T04:44:39;-5.10;97.00
10030;DHT22;5055;52.054;8.524;2023-02-28T04:47:07;-5.10;97.00
10030;DHT22;5055;52.054;8.524;2023-02-28T04:49:35;-5.20;97.00
10030;DHT22;5055;52.054;8.524;2023-02-28T04:52:04;-5.20;97.00
10030;DHT22;5055;52.054;8.524;2023-02-28T04:54:37;-5.20;97.00
10030;DHT22;5055;52.054;8.524;2023-02-28T04:57:08;-5.20;97.00
10030;DHT22;5055;52.054;8.524;2023-02-28T04:59:36;-5.30;97.00
10030;DHT22;5055;52.054;8.524;2023-02-28T05:02:08;-5.20;97.00
10030;DHT22;5055;52.054;8.524;2023-02-28T05:04:36;-5.20;97.00
10030;DHT22;5055;52.054;8.524;2023-02-28T05:07:05;-5.30;97.00
10030;DHT22;5055;52.054;8.524;2023-02-28T05:09:33;-5.30;97.00
10030;DHT22;5055;52.054;8.524;2023-02-28T05:12:02;-5.30;97.00
10030;DHT22;5055;52.054;8.524;2023-02-28T05:14:32;-5.30;97.00
10030;DHT22;5055;52.054;8.524;2023-02-28T05:17:00;-5.30;97.00
10030;DHT22;5055;52.054;8.524;2023-02-28T05:19:28;-5.30;97.00
10030;DHT22;5055;52.054;8.524;2023-02-28T05:21:57;-5.40;97.00
10030;DHT22;5055;52.054;8.524;2023-02-28T05:24:26;-5.40;97.00
10030;DHT22;5055;52.054;8.524;2023-02-28T05:26:54;-5.40;97.00
10030;DHT22;5055;52.054;8.524;2023-02-28T05:29:23;-5.40;97.00
10030;DHT22;5055;52.054;8.524;2023-02-28T05:31:53;-5.40;97.00
10030;DHT22;5055;52.054;8.524;2023-02-28T05:34:21;-5.40;97.00
10030;DHT22;5055;52.054;8.524;2023-02-28T05:36:50;-5.50;97.00
10030;DHT22;5055;52.054;8.524;2023-02-28T05:39:18;-5.50;97.00
10030;DHT22;5055;52.054;8.524;2023-02-28T05:41:46;-5.50;97.00
10030;DHT22;5055;52.054;8.524;2023-02-28T05:44:15;-5.50;97.00
10030;DHT22;5055;52.054;8.524;2023-02-28T05:46:43;-5.50;97.00
10030;DHT22;5055;52.054;8.524;2023-02-28T05:49:13;-5.50;97.00
10030;DHT22;5055;52.054;8.524;2023-02-28T05:51:42;-5.50;97.00
10030;DHT22;5055;52.054;8.524;2023-02-28T05:54:13;-5.50;97.00
10030;DHT22;5055;52.054;8.524;2023-02-28T05:56:41;-5.50;97.00
10030;DHT22;5055;52.054;8.524;2023-02-28T05:59:12;-5.50;97.00
10030;DHT22;5055;52.054;8.524;2023-02-28T06:01:41;-5.60;97.00
10030;DHT22;5055;52.054;8.524;2023-02-28T06:04:17;-5.60;97.00
10030;DHT22;5055;52.054;8.524;2023-02-28T06:06:57;-5.70;97.00
10030;DHT22;5055;52.054;8.524;2023-02-28T06:09:26;-5.70;97.00
10030;DHT22;5055;52.054;8.524;2023-02-28T06:11:54;-5.70;97.00
10030;DHT22;5055;52.054;8.524;2023-02-28T06:14:23;-5.70;97.00
10030;DHT22;5055;52.054;8.524;2023-02-28T06:16:51;-5.70;97.00
10030;DHT22;5055;52.054;8.524;2023-02-28T06:19:21;-5.70;97.00
10030;DHT22;5055;52.054;8.524;2023-02-28T06:21:53;-5.70;97.00
10030;DHT22;5055;52.054;8.524;2023-02-28T06:24:23;-5.70;97.00
10030;DHT22;5055;52.054;8.524;2023-02-28T06:26:51;-5.70;97.00
10030;DHT22;5055;52.054;8.524;2023-02-28T06:29:20;-5.70;97.00
10030;DHT22;5055;52.054;8.524;2023-02-28T06:31:48;-5.70;97.00
10030;DHT22;5055;52.054;8.524;2023-02-28T06:34:17;-5.70;97.00
10030;DHT22;5055;52.054;8.524;2023-02-28T06:36:49;-5.70;97.00
10030;DHT22;5055;52.054;8.524;2023-02-28T06:39:18;-5.70;97.00
10030;DHT22;5055;52.054;8.524;2023-02-28T06:41:48;-5.70;97.00
10030;DHT22;5055;52.054;8.524;2023-02-28T06:44:22;-5.70;97.00
10030;DHT22;5055;52.054;8.524;2023-02-28T06:46:51;-5.60;97.00
10030;DHT22;5055;52.054;8.524;2023-02-28T06:49:19;-5.60;97.00
10030;DHT22;5055;52.054;8.524;2023-02-28T06:51:49;-5.60;97.00
10030;DHT22;5055;52.054;8.524;2023-02-28T06:54:18;-5.50;97.00
10030;DHT22;5055;52.054;8.524;2023-02-28T06:56:46;-5.50;97.00
10030;DHT22;5055;52.054;8.524;2023-02-28T06:59:15;-5.40;97.00
10030;DHT22;5055;52.054;8.524;2023-02-28T07:01:43;-5.40;97.00
10030;DHT22;5055;52.054;8.524;2023-02-28T07:04:12;-5.20;97.00
10030;DHT22;5055;52.054;8.524;2023-02-28T07:06:41;-4.80;97.00
10030;DHT22;5055;52.054;8.524;2023-02-28T07:09:10;-4.30;97.00
10030;DHT22;5055;52.054;8.524;2023-02-28T07:11:41;-3.80;97.00
10030;DHT22;5055;52.054;8.524;2023-02-28T07:14:09;-3.30;97.00
10030;DHT22;5055;52.054;8.524;2023-02-28T07:16:38;-2.90;97.00
10030;DHT22;5055;52.054;8.524;2023-02-28T07:19:06;-2.50;97.00
10030;DHT22;5055;52.054;8.524;2023-02-28T07:21:35;-2.10;97.00
10030;DHT22;5055;52.054;8.524;2023-02-28T07:24:04;-1.60;97.00
10030;DHT22;5055;52.054;8.524;2023-02-28T07:26:34;-1.20;97.00
10030;DHT22;5055;52.054;8.524;2023-02-28T07:29:03;-0.80;97.00
10030;DHT22;5055;52.054;8.524;2023-02-28T07:31:32;-0.40;97.00
10030;DHT22;5055;52.054;8.524;2023-02-28T07:34:01;-0.10;97.00
10030;DHT22;5055;52.054;8.524;2023-02-28T07:36:30;0.20;97.00
10030;DHT22;5055;52.054;8.524;2023-02-28T07:38:59;0.50;97.00
10030;DHT22;5055;52.054;8.524;2023-02-28T07:41:27;0.80;97.00
10030;DHT22;5055;52.054;8.524;2023-02-28T07:44:01;1.20;97.00
10030;DHT22;5055;52.054;8.524;2023-02-28T07:46:30;1.40;97.00
10030;DHT22;5055;52.054;8.524;2023-02-28T07:49:02;1.40;97.00
10030;DHT22;5055;52.054;8.524;2023-02-28T07:51:31;1.60;97.00
10030;DHT22;5055;52.054;8.524;2023-02-28T07:54:00;1.90;97.00
10030;DHT22;5055;52.054;8.524;2023-02-28T07:56:28;2.10;97.00
10030;DHT22;5055;52.054;8.524;2023-02-28T07:58:57;2.40;97.00
10030;DHT22;5055;52.054;8.524;2023-02-28T08:01:27;2.60;97.00
10030;DHT22;5055;52.054;8.524;2023-02-28T08:03:56;2.90;97.00
10030;DHT22;5055;52.054;8.524;2023-02-28T08:06:25;3.20;97.00
10030;DHT22;5055;52.054;8.524;2023-02-28T08:08:54;3.40;97.00
10030;DHT22;5055;52.054;8.524;2023-02-28T08:11:23;3.50;97.00
10030;DHT22;5055;52.054;8.524;2023-02-28T08:13:51;3.60;97.00
10030;DHT22;5055;52.054;8.524;2023-02-28T08:16:20;3.60;97.00
10030;DHT22;5055;52.054;8.524;2023-02-28T08:18:52;3.70;97.00
10030;DHT22;5055;52.054;8.524;2023-02-28T08:21:21;3.80;97.00
10030;DHT22;5055;52.054;8.524;2023-02-28T08:23:50;4.00;97.00
10030;DHT22;5055;52.054;8.524;2023-02-28T08:26:20;4.20;97.00
10030;DHT22;5055;52.054;8.524;2023-02-28T08:28:49;4.40;97.00
10030;DHT22;5055;52.054;8.524;2023-02-28T08:31:17;4.50;97.00
10030;DHT22;5055;52.054;8.524;2023-02-28T08:33:46;4.50;97.00
10030;DHT22;5055;52.054;8.524;2023-02-28T08:36:20;4.70;97.00
10030;DHT22;5055;52.054;8.524;2023-02-28T08:38:48;5.00;97.00
10030;DHT22;5055;52.054;8.524;2023-02-28T08:41:17;5.20;97.00
10030;DHT22;5055;52.054;8.524;2023-02-28T08:43:45;5.50;97.00
10030;DHT22;5055;52.054;8.524;2023-02-28T08:46:14;5.70;97.00
10030;DHT22;5055;52.054;8.524;2023-02-28T08:48:43;5.90;97.00
10030;DHT22;5055;52.054;8.524;2023-02-28T08:51:14;5.90;97.00
10030;DHT22;5055;52.054;8.524;2023-02-28T08:53:47;6.10;97.00
10030;DHT22;5055;52.054;8.524;2023-02-28T08:56:16;6.30;97.00
10030;DHT22;5055;52.054;8.524;2023-02-28T08:58:46;6.30;97.00
10030;DHT22;5055;52.054;8.524;2023-02-28T09:01:16;6.40;97.00
10030;DHT22;5055;52.054;8.524;2023-02-28T09:03:45;6.60;97.00
10030;DHT22;5055;52.054;8.524;2023-02-28T09:06:15;6.80;97.00
10030;DHT22;5055;52.054;8.524;2023-02-28T09:08:45;6.80;97.00
10030;DHT22;5055;52.054;8.524;2023-02-28T09:11:15;7.20;97.00
10030;DHT22;5055;52.054;8.524;2023-02-28T09:13:44;7.20;97.00
10030;DHT22;5055;52.054;8.524;2023-02-28T09:16:14;7.30;97.00
10030;DHT22;5055;52.054;8.524;2023-02-28T09:18:43;7.10;97.00
10030;DHT22;5055;52.054;8.524;2023-02-28T09:21:13;7.40;97.00
10030;DHT22;5055;52.054;8.524;2023-02-28T09:23:42;7.50;97.00
10030;DHT22;5055;52.054;8.524;2023-02-28T09:26:15;6.90;97.00
10030;DHT22;5055;52.054;8.524;2023-02-28T09:28:44;6.80;97.00
10030;DHT22;5055;52.054;8.524;2023-02-28T09:31:14;7.40;97.00
10030;DHT22;5055;52.054;8.524;2023-02-28T09:33:43;8.10;97.00
10030;DHT22;5055;52.054;8.524;2023-02-28T09:36:11;8.40;97.00
10030;DHT22;5055;52.054;8.524;2023-02-28T09:38:40;8.60;97.00
10030;DHT22;5055;52.054;8.524;2023-02-28T09:41:15;8.70;97.00
10030;DHT22;5055;52.054;8.524;2023-02-28T09:43:48;8.90;97.00
10030;DHT22;5055;52.054;8.524;2023-02-28T09:46:31;8.90;97.00
10030;DHT22;5055;52.054;8.524;2023-02-28T09:49:04;8.80;97.00
10030;DHT22;5055;52.054;8.524;2023-02-28T09:51:40;8.30;97.00
10030;DHT22;5055;52.054;8.524;2023-02-28T09:54:15;8.00;97.00
10030;DHT22;5055;52.054;8.524;2023-02-28T09:56:49;8.00;97.00
10030;DHT22;5055;52.054;8.524;2023-02-28T09:59:35;8.40;97.00
10030;DHT22;5055;52.054;8.524;2023-02-28T10:02:17;8.50;97.00
10030;DHT22;5055;52.054;8.524;2023-02-28T10:04:50;8.30;97.00
10030;DHT22;5055;52.054;8.524;2023-02-28T10:07:36;8.40;97.00
10030;DHT22;5055;52.054;8.524;2023-02-28T10:10:18;8.60;97.00
10030;DHT22;5055;52.054;8.524;2023-02-28T10:12:52;8.90;97.00
10030;DHT22;5055;52.054;8.524;2023-02-28T10:15:24;9.00;97.00
10030;DHT22;5055;52.054;8.524;2023-02-28T10:17:56;8.90;97.00
10030;DHT22;5055;52.054;8.524;2023-02-28T10:20:38;9.20;97.00
10030;DHT22;5055;52.054;8.524;2023-02-28T10:23:13;9.30;97.00
10030;DHT22;5055;52.054;8.524;2023-02-28T10:25:47;9.40;97.00
10030;DHT22;5055;52.054;8.524;2023-02-28T10:28:19;9.30;97.00
10030;DHT22;5055;52.054;8.524;2023-02-28T10:30:50;9.30;97.00
10030;DHT22;5055;52.054;8.524;2023-02-28T10:33:22;9.10;97.00
10030;DHT22;5055;52.054;8.524;2023-02-28T10:35:52;8.60;97.00
10030;DHT22;5055;52.054;8.524;2023-02-28T10:38:22;8.50;97.00
10030;DHT22;5055;52.054;8.524;2023-02-28T10:40:51;8.40;97.00
10030;DHT22;5055;52.054;8.524;2023-02-28T10:43:33;8.30;97.00
10030;DHT22;5055;52.054;8.524;2023-02-28T10:46:04;8.20;97.00
10030;DHT22;5055;52.054;8.524;2023-02-28T10:48:36;8.60;97.00
10030;DHT22;5055;52.054;8.524;2023-02-28T10:51:05;8.80;97.00
10030;DHT22;5055;52.054;8.524;2023-02-28T10:53:40;8.70;97.00
10030;DHT22;5055;52.054;8.524;2023-02-28T10:56:28;8.50;97.00
10030;DHT22;5055;52.054;8.524;2023-02-28T10:59:00;8.00;97.00
10030;DHT22;5055;52.054;8.524;2023-02-28T11:01:37;7.70;97.00
10030;DHT22;5055;52.054;8.524;2023-02-28T11:04:17;7.70;97.00
10030;DHT22;5055;52.054;8.524;2023-02-28T11:06:57;8.10;97.00
10030;DHT22;5055;52.054;8.524;2023-02-28T11:09:29;7.90;97.00
10030;DHT22;5055;52.054;8.524;2023-02-28T11:11:59;7.30;97.00
10030;DHT22;5055;52.054;8.524;2023-02-28T11:14:31;7.30;97.00
10030;DHT22;5055;52.054;8.524;2023-02-28T11:17:14;7.10;97.00
10030;DHT22;5055;52.054;8.524;2023-02-28T11:19:45;6.70;97.00
10030;DHT22;5055;52.054;8.524;2023-02-28T11:22:19;7.20;97.00
10030;DHT22;5055;52.054;8.524;2023-02-28T11:24:52;7.40;97.00
10030;DHT22;5055;52.054;8.524;2023-02-28T11:27:45;7.80;97.00
10030;DHT22;5055;52.054;8.524;2023-02-28T11:30:34;8.00;97.00
10030;DHT22;5055;52.054;8.524;2023-02-28T11:33:20;8.30;97.00
10030;DHT22;5055;52.054;8.524;2023-02-28T11:35:51;8.50;97.00
10030;DHT22;5055;52.054;8.524;2023-02-28T11:38:19;8.30;97.00
10030;DHT22;5055;52.054;8.524;2023-02-28T11:41:04;8.30;97.00
10030;DHT22;5055;52.054;8.524;2023-02-28T11:43:44;8.00;97.00
10030;DHT22;5055;52.054;8.524;2023-02-28T11:46:25;7.90;97.00
10030;DHT22;5055;52.054;8.524;2023-02-28T11:49:02;7.70;97.00
10030;DHT22;5055;52.054;8.524;2023-02-28T11:51:39;7.60;97.00
10030;DHT22;5055;52.054;8.524;2023-02-28T11:54:28;7.30;97.00
10030;DHT22;5055;52.054;8.524;2023-02-28T11:57:00;7.20;97.00
10030;DHT22;5055;52.054;8.524;2023-02-28T11:59:41;7.10;97.00
10030;DHT22;5055;52.054;8.524;2023-02-28T12:02:24;6.90;97.00
10030;DHT22;5055;52.054;8.524;2023-02-28T12:05:10;6.80;97.00
10030;DHT22;5055;52.054;8.524;2023-02-28T12:07:48;6.80;97.00
10030;DHT22;5055;52.054;8.524;2023-02-28T12:10:22;6.80;97.00
10030;DHT22;5055;52.054;8.524;2023-02-28T12:13:05;7.00;97.00
10030;DHT22;5055;52.054;8.524;2023-02-28T12:16:13;7.00;97.00
10030;DHT22;5055;52.054;8.524;2023-02-28T12:18:57;7.00;97.00
10030;DHT22;5055;52.054;8.524;2023-02-28T12:21:37;6.80;97.00
10030;DHT22;5055;52.054;8.524;2023-02-28T12:27:13;6.90;97.00
10030;DHT22;5055;52.054;8.524;2023-02-28T12:29:47;7.30;97.00
10030;DHT22;5055;52.054;8.524;2023-02-28T12:32:21;7.70;97.00
10030;DHT22;5055;52.054;8.524;2023-02-28T12:34:56;7.80;97.00
10030;DHT22;5055;52.054;8.524;2023-02-28T12:37:29;7.60;97.00
10030;DHT22;5055;52.054;8.524;2023-02-28T12:40:02;7.80;97.00
10030;DHT22;5055;52.054;8.524;2023-02-28T12:42:36;8.10;97.00
10030;DHT22;5055;52.054;8.524;2023-02-28T12:45:10;8.70;97.00
10030;DHT22;5055;52.054;8.524;2023-02-28T12:47:42;9.10;97.00
10030;DHT22;5055;52.054;8.524;2023-02-28T12:50:14;8.80;97.00
10030;DHT22;5055;52.054;8.524;2023-02-28T12:52:53;9.30;97.00
10030;DHT22;5055;52.054;8.524;2023-02-28T12:55:29;9.70;97.00
10030;DHT22;5055;52.054;8.524;2023-02-28T12:58:08;9.70;97.00
10030;DHT22;5055;52.054;8.524;2023-02-28T13:00:52;10.10;97.00
10030;DHT22;5055;52.054;8.524;2023-02-28T13:03:51;10.70;97.00
10030;DHT22;5055;52.054;8.524;2023-02-28T13:06:33;11.10;97.00
10030;DHT22;5055;52.054;8.524;2023-02-28T13:09:10;11.40;97.00
10030;DHT22;5055;52.054;8.524;2023-02-28T13:11:42;10.90;97.00
10030;DHT22;5055;52.054;8.524;2023-02-28T13:14:24;10.80;97.00
10030;DHT22;5055;52.054;8.524;2023-02-28T13:16:59;10.60;97.00
10030;DHT22;5055;52.054;8.524;2023-02-28T13:19:30;10.90;97.00
10030;DHT22;5055;52.054;8.524;2023-02-28T13:22:01;10.90;97.00
10030;DHT22;5055;52.054;8.524;2023-02-28T13:24:40;11.10;97.00
10030;DHT22;5055;52.054;8.524;2023-02-28T13:27:36;11.70;97.00
10030;DHT22;5055;52.054;8.524;2023-02-28T13:33:26;11.00;97.00
10030;DHT22;5055;52.054;8.524;2023-02-28T13:36:10;11.10;97.00
10030;DHT22;5055;52.054;8.524;2023-02-28T13:38:51;11.60;97.00
10030;DHT22;5055;52.054;8.524;2023-02-28T13:41:43;12.30;97.00
10030;DHT22;5055;52.054;8.524;2023-02-28T13:44:16;12.20;97.00
10030;DHT22;5055;52.054;8.524;2023-02-28T13:47:23;12.40;97.00
10030;DHT22;5055;52.054;8.524;2023-02-28T13:49:53;12.10;97.00
10030;DHT22;5055;52.054;8.524;2023-02-28T13:52:23;11.60;97.00
10030;DHT22;5055;52.054;8.524;2023-02-28T13:55:22;11.00;97.00
10030;DHT22;5055;52.054;8.524;2023-02-28T13:58:09;11.20;97.00
10030;DHT22;5055;52.054;8.524;2023-02-28T14:00:59;11.30;97.00
10030;DHT22;5055;52.054;8.524;2023-02-28T14:04:02;11.30;97.00
10030;DHT22;5055;52.054;8.524;2023-02-28T14:06:36;11.60;97.00
10030;DHT22;5055;52.054;8.524;2023-02-28T14:09:15;11.60;97.00
10030;DHT22;5055;52.054;8.524;2023-02-28T14:11:47;11.00;97.00
10030;DHT22;5055;52.054;8.524;2023-02-28T14:17:18;11.70;97.00
10030;DHT22;5055;52.054;8.524;2023-02-28T14:19:48;11.50;97.00
10030;DHT22;5055;52.054;8.524;2023-02-28T14:22:39;11.70;97.00
10030;DHT22;5055;52.054;8.524;2023-02-28T14:25:22;11.50;97.00
10030;DHT22;5055;52.054;8.524;2023-02-28T14:28:04;12.10;97.00
10030;DHT22;5055;52.054;8.524;2023-02-28T14:31:00;12.00;97.00
10030;DHT22;5055;52.054;8.524;2023-02-28T14:33:43;12.50;97.00
10030;DHT22;5055;52.054;8.524;2023-02-28T14:36:17;12.90;97.00
10030;DHT22;5055;52.054;8.524;2023-02-28T14:38:47;12.70;97.00
10030;DHT22;5055;52.054;8.524;2023-02-28T14:41:29;12.70;97.00
10030;DHT22;5055;52.054;8.524;2023-02-28T14:44:02;12.90;97.00
10030;DHT22;5055;52.054;8.524;2023-02-28T14:46:36;12.90;97.00
10030;DHT22;5055;52.054;8.524;2023-02-28T14:49:16;12.70;97.00
10030;DHT22;5055;52.054;8.524;2023-02-28T14:51:50;12.50;97.00
10030;DHT22;5055;52.054;8.524;2023-02-28T14:54:22;12.90;97.00
10030;DHT22;5055;52.054;8.524;2023-02-28T14:56:53;12.50;97.00
10030;DHT22;5055;52.054;8.524;2023-02-28T14:59:28;12.30;97.00
10030;DHT22;5055;52.054;8.524;2023-02-28T15:02:21;12.70;97.00
10030;DHT22;5055;52.054;8.524;2023-02-28T15:04:54;13.20;97.00
10030;DHT22;5055;52.054;8.524;2023-02-28T15:07:23;13.60;97.00
10030;DHT22;5055;52.054;8.524;2023-02-28T15:10:17;13.30;97.00
10030;DHT22;5055;52.054;8.524;2023-02-28T15:12:51;12.60;97.00
10030;DHT22;5055;52.054;8.524;2023-02-28T15:15:24;12.40;97.00
10030;DHT22;5055;52.054;8.524;2023-02-28T15:18:07;12.60;97.00
10030;DHT22;5055;52.054;8.524;2023-02-28T15:20:41;12.60;97.00
10030;DHT22;5055;52.054;8.524;2023-02-28T15:23:11;12.50;97.00
10030;DHT22;5055;52.054;8.524;2023-02-28T15:25:40;12.40;97.00
10030;DHT22;5055;52.054;8.524;2023-02-28T15:28:16;11.60;97.00
10030;DHT22;5055;52.054;8.524;2023-02-28T15:30:59;11.20;97.00
10030;DHT22;5055;52.054;8.524;2023-02-28T15:33:29;11.20;97.00
10030;DHT22;5055;52.054;8.524;2023-02-28T15:36:06;11.20;97.00
10030;DHT22;5055;52.054;8.524;2023-02-28T15:38:36;11.10;97.00
10030;DHT22;5055;52.054;8.524;2023-02-28T15:41:04;10.60;97.00
10030;DHT22;5055;52.054;8.524;2023-02-28T15:43:36;9.80;97.00
10030;DHT22;5055;52.054;8.524;2023-02-28T15:46:07;8.80;97.00
10030;DHT22;5055;52.054;8.524;2023-02-28T15:48:42;8.10;97.00
10030;DHT22;5055;52.054;8.524;2023-02-28T15:51:17;7.40;97.00
10030;DHT22;5055;52.054;8.524;2023-02-28T15:53:50;6.90;97.00
10030;DHT22;5055;52.054;8.524;2023-02-28T15:56:24;6.50;97.00
10030;DHT22;5055;52.054;8.524;2023-02-28T15:58:54;6.30;97.00
10030;DHT22;5055;52.054;8.524;2023-02-28T16:01:27;6.00;97.00
10030;DHT22;5055;52.054;8.524;2023-02-28T16:03:59;5.90;97.00
10030;DHT22;5055;52.054;8.524;2023-02-28T16:06:37;5.80;97.00
10030;DHT22;5055;52.054;8.524;2023-02-28T16:09:09;5.60;97.00
10030;DHT22;5055;52.054;8.524;2023-02-28T16:11:42;5.60;97.00
10030;DHT22;5055;52.054;8.524;2023-02-28T16:14:17;5.50;97.00
10030;DHT22;5055;52.054;8.524;2023-02-28T16:16:50;5.40;97.00
10030;DHT22;5055;52.054;8.524;2023-02-28T16:19:19;5.40;97.00
10030;DHT22;5055;52.054;8.524;2023-02-28T16:21:48;5.30;97.00
10030;DHT22;5055;52.054;8.524;2023-02-28T16:24:17;5.20;97.00
10030;DHT22;5055;52.054;8.524;2023-02-28T16:26:46;5.20;97.00
10030;DHT22;5055;52.054;8.524;2023-02-28T16:29:21;5.10;97.00
10030;DHT22;5055;52.054;8.524;2023-02-28T16:31:52;5.00;97.00
10030;DHT22;5055;52.054;8.524;2023-02-28T16:34:22;5.00;97.00
10030;DHT22;5055;52.054;8.524;2023-02-28T16:36:51;5.00;97.00
10030;DHT22;5055;52.054;8.524;2023-02-28T16:39:20;4.90;97.00
10030;DHT22;5055;52.054;8.524;2023-02-28T16:41:50;4.80;97.00
10030;DHT22;5055;52.054;8.524;2023-02-28T16:44:26;4.80;97.00
10030;DHT22;5055;52.054;8.524;2023-02-28T16:46:56;4.60;97.00
10030;DHT22;5055;52.054;8.524;2023-02-28T16:49:25;4.60;97.00